sensor_id;sensor_type;location;lat;lon;timestamp;P1;durP1;ratioP1;P2;durP2;ratioP2
11604;SDS011;5858;43.076;25.626;2023-07-13T00:02:24;15.45;;;13.00;;
11604;SDS011;5858;43.076;25.626;2023-07-13T00:04:52;15.45;;;13.25;;
11604;SDS011;5858;43.076;25.626;2023-07-13T00:07:19;14.45;;;13.02;;
11604;SDS011;5858;43.076;25.626;2023-07-13T00:09:46;14.57;;;12.77;;
11604;SDS011;5858;43.076;25.626;2023-07-13T00:12:24;15.57;;;12.98;;
11604;SDS011;5858;43.076;25.626;2023-07-13T00:14:52;14.57;;;12.43;;
11604;SDS011;5858;43.076;25.626;2023-07-13T00:17:21;14.73;;;13.15;;
11604;SDS011;5858;43.076;25.626;2023-07-13T00:19:48;14.70;;;13.07;;
11604;SDS011;5858;43.076;25.626;2023-07-13T00:22:15;15.68;;;12.45;;
11604;SDS011;5858;43.076;25.626;2023-07-13T00:24:43;17.35;;;12.18;;
11604;SDS011;5858;43.076;25.626;2023-07-13T00:27:11;14.52;;;12.73;;
11604;SDS011;5858;43.076;25.626;2023-07-13T00:29:38;16.38;;;13.35;;
11604;SDS011;5858;43.076;25.626;2023-07-13T00:32:06;15.77;;;12.43;;
11604;SDS011;5858;43.076;25.626;2023-07-13T00:34:36;18.08;;;13.35;;
11604;SDS011;5858;43.076;25.626;2023-07-13T00:37:03;15.38;;;13.23;;
11604;SDS011;5858;43.076;25.626;2023-07-13T00:39:31;16.00;;;13.30;;
11604;SDS011;5858;43.076;25.626;2023-07-13T00:41:58;16.80;;;12.25;;
11604;SDS011;5858;43.076;25.626;2023-07-13T00:44:31;15.55;;;12.88;;
11604;SDS011;5858;43.076;25.626;2023-07-13T00:46:58;15.02;;;12.55;;
11604;SDS011;5858;43.076;25.626;2023-07-13T00:49:26;16.85;;;12.52;;
11604;SDS011;5858;43.076;25.626;2023-07-13T00:51:58;15.10;;;13.38;;
11604;SDS011;5858;43.076;25.626;2023-07-13T00:54:29;13.75;;;12.35;;
11604;SDS011;5858;43.076;25.626;2023-07-13T00:57:00;15.00;;;12.77;;
11604;SDS011;5858;43.076;25.626;2023-07-13T00:59:30;14.23;;;12.35;;
11604;SDS011;5858;43.076;25.626;2023-07-13T01:01:57;16.23;;;13.30;;
11604;SDS011;5858;43.076;25.626;2023-07-13T01:04:27;13.82;;;12.40;;
11604;SDS011;5858;43.076;25.626;2023-07-13T01:06:54;14.50;;;12.05;;
11604;SDS011;5858;43.076;25.626;2023-07-13T01:09:25;13.45;;;12.00;;
11604;SDS011;5858;43.076;25.626;2023-07-13T01:11:53;19.17;;;12.77;;
11604;SDS011;5858;43.076;25.626;2023-07-13T01:14:20;14.95;;;12.40;;
11604;SDS011;5858;43.076;25.626;2023-07-13T01:16:47;14.07;;;12.70;;
11604;SDS011;5858;43.076;25.626;2023-07-13T01:19:25;14.07;;;12.40;;
11604;SDS011;5858;43.076;25.626;2023-07-13T01:22:02;15.00;;;13.40;;
11604;SDS011;5858;43.076;25.626;2023-07-13T01:24:33;14.05;;;12.32;;
11604;SDS011;5858;43.076;25.626;2023-07-13T01:27:01;16.48;;;13.35;;
11604;SDS011;5858;43.076;25.626;2023-07-13T01:29:28;15.52;;;13.48;;
11604;SDS011;5858;43.076;25.626;2023-07-13T01:31:55;17.00;;;14.07;;
11604;SDS011;5858;43.076;25.626;2023-07-13T01:34:22;17.33;;;13.32;;
11604;SDS011;5858;43.076;25.626;2023-07-13T01:36:49;19.85;;;14.27;;
11604;SDS011;5858;43.076;25.626;2023-07-13T01:39:20;18.63;;;14.18;;
11604;SDS011;5858;43.076;25.626;2023-07-13T01:41:47;16.20;;;13.27;;
11604;SDS011;5858;43.076;25.626;2023-07-13T01:44:14;19.08;;;13.55;;
11604;SDS011;5858;43.076;25.626;2023-07-13T01:46:41;17.30;;;13.98;;
11604;SDS011;5858;43.076;25.626;2023-07-13T01:49:08;15.88;;;13.85;;
11604;SDS011;5858;43.076;25.626;2023-07-13T01:51:35;16.00;;;14.05;;
11604;SDS011;5858;43.076;25.626;2023-07-13T01:54:02;18.20;;;15.00;;
11604;SDS011;5858;43.076;25.626;2023-07-13T01:56:31;14.90;;;13.45;;
11604;SDS011;5858;43.076;25.626;2023-07-13T01:59:00;14.18;;;12.68;;
11604;SDS011;5858;43.076;25.626;2023-07-13T02:01:27;15.07;;;13.30;;
11604;SDS011;5858;43.076;25.626;2023-07-13T02:03:54;15.48;;;13.00;;
11604;SDS011;5858;43.076;25.626;2023-07-13T02:06:21;13.48;;;12.18;;
11604;SDS011;5858;43.076;25.626;2023-07-13T02:08:48;15.43;;;12.60;;
11604;SDS011;5858;43.076;25.626;2023-07-13T02:11:15;15.13;;;12.90;;
11604;SDS011;5858;43.076;25.626;2023-07-13T02:13:44;14.48;;;12.43;;
11604;SDS011;5858;43.076;25.626;2023-07-13T02:16:10;15.23;;;12.63;;
11604;SDS011;5858;43.076;25.626;2023-07-13T02:18:38;15.60;;;13.35;;
11604;SDS011;5858;43.076;25.626;2023-07-13T02:21:05;14.07;;;12.68;;
11604;SDS011;5858;43.076;25.626;2023-07-13T02:23:32;14.15;;;12.50;;
11604;SDS011;5858;43.076;25.626;2023-07-13T02:26:01;15.93;;;12.05;;
11604;SDS011;5858;43.076;25.626;2023-07-13T02:28:30;16.85;;;13.15;;
11604;SDS011;5858;43.076;25.626;2023-07-13T02:31:05;16.83;;;13.63;;
11604;SDS011;5858;43.076;25.626;2023-07-13T02:33:32;15.00;;;12.93;;
11604;SDS011;5858;43.076;25.626;2023-07-13T02:36:00;16.90;;;13.35;;
11604;SDS011;5858;43.076;25.626;2023-07-13T02:38:27;15.10;;;13.32;;
11604;SDS011;5858;43.076;25.626;2023-07-13T02:40:53;15.43;;;13.73;;
11604;SDS011;5858;43.076;25.626;2023-07-13T02:43:21;15.25;;;13.40;;
11604;SDS011;5858;43.076;25.626;2023-07-13T02:45:48;14.85;;;13.40;;
11604;SDS011;5858;43.076;25.626;2023-07-13T02:48:17;14.85;;;13.27;;
11604;SDS011;5858;43.076;25.626;2023-07-13T02:50:44;14.15;;;12.52;;
11604;SDS011;5858;43.076;25.626;2023-07-13T02:53:11;19.80;;;13.13;;
11604;SDS011;5858;43.076;25.626;2023-07-13T02:55:38;18.98;;;14.93;;
11604;SDS011;5858;43.076;25.626;2023-07-13T02:58:06;23.60;;;16.92;;
11604;SDS011;5858;43.076;25.626;2023-07-13T03:00:33;20.25;;;17.08;;
11604;SDS011;5858;43.076;25.626;2023-07-13T03:03:00;21.48;;;17.05;;
11604;SDS011;5858;43.076;25.626;2023-07-13T03:05:29;20.67;;;16.48;;
11604;SDS011;5858;43.076;25.626;2023-07-13T03:07:56;21.65;;;16.38;;
11604;SDS011;5858;43.076;25.626;2023-07-13T03:10:23;20.10;;;15.27;;
11604;SDS011;5858;43.076;25.626;2023-07-13T03:12:53;21.83;;;15.75;;
11604;SDS011;5858;43.076;25.626;2023-07-13T03:15:20;21.08;;;15.40;;
11604;SDS011;5858;43.076;25.626;2023-07-13T03:17:50;19.67;;;15.63;;
11604;SDS011;5858;43.076;25.626;2023-07-13T03:20:17;16.75;;;14.52;;
11604;SDS011;5858;43.076;25.626;2023-07-13T03:22:46;23.05;;;15.68;;
11604;SDS011;5858;43.076;25.626;2023-07-13T03:25:19;18.40;;;14.75;;
11604;SDS011;5858;43.076;25.626;2023-07-13T03:27:46;17.05;;;13.80;;
11604;SDS011;5858;43.076;25.626;2023-07-13T03:30:13;18.42;;;14.63;;
11604;SDS011;5858;43.076;25.626;2023-07-13T03:32:40;16.42;;;13.57;;
11604;SDS011;5858;43.076;25.626;2023-07-13T03:35:10;21.55;;;15.13;;
11604;SDS011;5858;43.076;25.626;2023-07-13T03:37:38;20.30;;;13.50;;
11604;SDS011;5858;43.076;25.626;2023-07-13T03:40:18;15.57;;;13.18;;
11604;SDS011;5858;43.076;25.626;2023-07-13T03:42:46;21.38;;;12.98;;
11604;SDS011;5858;43.076;25.626;2023-07-13T03:45:13;15.13;;;12.77;;
11604;SDS011;5858;43.076;25.626;2023-07-13T03:47:40;16.58;;;12.63;;
11604;SDS011;5858;43.076;25.626;2023-07-13T03:50:08;15.18;;;13.10;;
11604;SDS011;5858;43.076;25.626;2023-07-13T03:52:35;17.35;;;13.07;;
11604;SDS011;5858;43.076;25.626;2023-07-13T03:55:03;15.43;;;12.57;;
11604;SDS011;5858;43.076;25.626;2023-07-13T03:57:32;25.08;;;13.70;;
11604;SDS011;5858;43.076;25.626;2023-07-13T04:00:00;21.75;;;13.70;;
11604;SDS011;5858;43.076;25.626;2023-07-13T04:02:28;19.90;;;13.18;;
11604;SDS011;5858;43.076;25.626;2023-07-13T04:04:55;16.25;;;12.82;;
11604;SDS011;5858;43.076;25.626;2023-07-13T04:07:22;18.35;;;12.98;;
11604;SDS011;5858;43.076;25.626;2023-07-13T04:09:52;17.13;;;14.15;;
11604;SDS011;5858;43.076;25.626;2023-07-13T04:12:19;16.70;;;13.70;;
11604;SDS011;5858;43.076;25.626;2023-07-13T04:14:48;22.15;;;14.35;;
11604;SDS011;5858;43.076;25.626;2023-07-13T04:17:19;18.42;;;13.70;;
11604;SDS011;5858;43.076;25.626;2023-07-13T04:19:48;15.23;;;13.63;;
11604;SDS011;5858;43.076;25.626;2023-07-13T04:22:16;14.95;;;12.75;;
11604;SDS011;5858;43.076;25.626;2023-07-13T04:24:43;16.52;;;11.98;;
11604;SDS011;5858;43.076;25.626;2023-07-13T04:27:11;12.02;;;10.68;;
11604;SDS011;5858;43.076;25.626;2023-07-13T04:29:38;13.30;;;10.32;;
11604;SDS011;5858;43.076;25.626;2023-07-13T04:32:12;13.23;;;10.82;;
11604;SDS011;5858;43.076;25.626;2023-07-13T04:34:43;12.48;;;9.82;;
11604;SDS011;5858;43.076;25.626;2023-07-13T04:37:11;14.35;;;9.98;;
11604;SDS011;5858;43.076;25.626;2023-07-13T04:39:39;12.00;;;9.82;;
11604;SDS011;5858;43.076;25.626;2023-07-13T04:42:07;12.48;;;9.77;;
11604;SDS011;5858;43.076;25.626;2023-07-13T04:44:34;15.38;;;9.73;;
11604;SDS011;5858;43.076;25.626;2023-07-13T04:47:02;15.55;;;9.88;;
11604;SDS011;5858;43.076;25.626;2023-07-13T04:49:36;15.25;;;9.07;;
11604;SDS011;5858;43.076;25.626;2023-07-13T04:52:08;13.23;;;9.68;;
11604;SDS011;5858;43.076;25.626;2023-07-13T04:54:41;12.40;;;9.90;;
11604;SDS011;5858;43.076;25.626;2023-07-13T04:57:11;13.30;;;10.07;;
11604;SDS011;5858;43.076;25.626;2023-07-13T04:59:47;11.50;;;9.20;;
11604;SDS011;5858;43.076;25.626;2023-07-13T05:02:16;12.90;;;9.52;;
11604;SDS011;5858;43.076;25.626;2023-07-13T05:05:03;12.32;;;9.75;;
11604;SDS011;5858;43.076;25.626;2023-07-13T05:07:39;9.68;;;8.40;;
11604;SDS011;5858;43.076;25.626;2023-07-13T05:10:10;12.90;;;9.35;;
11604;SDS011;5858;43.076;25.626;2023-07-13T05:12:40;10.80;;;9.52;;
11604;SDS011;5858;43.076;25.626;2023-07-13T05:15:15;10.82;;;9.73;;
11604;SDS011;5858;43.076;25.626;2023-07-13T05:17:46;12.50;;;10.27;;
11604;SDS011;5858;43.076;25.626;2023-07-13T05:20:14;10.07;;;9.07;;
11604;SDS011;5858;43.076;25.626;2023-07-13T05:22:42;12.13;;;9.18;;
11604;SDS011;5858;43.076;25.626;2023-07-13T05:25:09;11.55;;;9.77;;
11604;SDS011;5858;43.076;25.626;2023-07-13T05:27:39;10.50;;;8.50;;
11604;SDS011;5858;43.076;25.626;2023-07-13T05:30:36;9.75;;;8.70;;
11604;SDS011;5858;43.076;25.626;2023-07-13T05:33:24;11.75;;;8.77;;
11604;SDS011;5858;43.076;25.626;2023-07-13T05:35:57;11.43;;;9.00;;
11604;SDS011;5858;43.076;25.626;2023-07-13T05:38:45;11.45;;;8.77;;
11604;SDS011;5858;43.076;25.626;2023-07-13T05:41:12;9.90;;;8.90;;
11604;SDS011;5858;43.076;25.626;2023-07-13T05:43:44;9.65;;;8.52;;
11604;SDS011;5858;43.076;25.626;2023-07-13T05:46:25;9.45;;;8.35;;
11604;SDS011;5858;43.076;25.626;2023-07-13T05:48:57;10.15;;;9.13;;
11604;SDS011;5858;43.076;25.626;2023-07-13T05:51:32;10.32;;;9.23;;
11604;SDS011;5858;43.076;25.626;2023-07-13T05:54:02;10.30;;;8.55;;
11604;SDS011;5858;43.076;25.626;2023-07-13T05:56:29;12.40;;;8.15;;
11604;SDS011;5858;43.076;25.626;2023-07-13T05:59:04;10.43;;;8.57;;
11604;SDS011;5858;43.076;25.626;2023-07-13T06:01:50;11.23;;;8.25;;
11604;SDS011;5858;43.076;25.626;2023-07-13T06:04:18;12.77;;;8.23;;
11604;SDS011;5858;43.076;25.626;2023-07-13T06:09:55;9.77;;;8.10;;
11604;SDS011;5858;43.076;25.626;2023-07-13T06:12:27;10.68;;;8.13;;
11604;SDS011;5858;43.076;25.626;2023-07-13T06:15:04;12.70;;;8.50;;
11604;SDS011;5858;43.076;25.626;2023-07-13T06:17:37;13.40;;;9.02;;
11604;SDS011;5858;43.076;25.626;2023-07-13T06:20:10;8.88;;;8.05;;
11604;SDS011;5858;43.076;25.626;2023-07-13T06:22:51;11.60;;;8.75;;
11604;SDS011;5858;43.076;25.626;2023-07-13T06:49:39;14.93;;;9.18;;
11604;SDS011;5858;43.076;25.626;2023-07-13T06:52:22;12.30;;;10.15;;
11604;SDS011;5858;43.076;25.626;2023-07-13T06:55:05;14.60;;;9.75;;
11604;SDS011;5858;43.076;25.626;2023-07-13T06:57:48;13.18;;;9.88;;
11604;SDS011;5858;43.076;25.626;2023-07-13T07:00:22;13.60;;;10.75;;
11604;SDS011;5858;43.076;25.626;2023-07-13T07:03:06;16.33;;;11.60;;
11604;SDS011;5858;43.076;25.626;2023-07-13T07:06:14;11.38;;;8.80;;
11604;SDS011;5858;43.076;25.626;2023-07-13T07:08:45;10.35;;;8.43;;
11604;SDS011;5858;43.076;25.626;2023-07-13T07:11:18;11.75;;;8.77;;
11604;SDS011;5858;43.076;25.626;2023-07-13T07:13:51;10.65;;;9.63;;
11604;SDS011;5858;43.076;25.626;2023-07-13T07:16:24;12.95;;;8.93;;
11604;SDS011;5858;43.076;25.626;2023-07-13T07:18:54;13.95;;;9.80;;
11604;SDS011;5858;43.076;25.626;2023-07-13T07:21:22;12.15;;;9.60;;
11604;SDS011;5858;43.076;25.626;2023-07-13T07:23:53;12.73;;;10.73;;
11604;SDS011;5858;43.076;25.626;2023-07-13T07:36:06;16.35;;;10.48;;
11604;SDS011;5858;43.076;25.626;2023-07-13T07:38:35;10.60;;;9.07;;
11604;SDS011;5858;43.076;25.626;2023-07-13T07:41:04;12.93;;;8.95;;
11604;SDS011;5858;43.076;25.626;2023-07-13T07:43:32;12.45;;;9.90;;
11604;SDS011;5858;43.076;25.626;2023-07-13T07:46:03;12.20;;;9.68;;
11604;SDS011;5858;43.076;25.626;2023-07-13T07:48:30;11.68;;;10.20;;
11604;SDS011;5858;43.076;25.626;2023-07-13T07:50:57;10.98;;;9.18;;
11604;SDS011;5858;43.076;25.626;2023-07-13T07:53:24;16.77;;;9.45;;
11604;SDS011;5858;43.076;25.626;2023-07-13T07:55:52;9.85;;;8.85;;
11604;SDS011;5858;43.076;25.626;2023-07-13T07:58:22;11.43;;;10.25;;
11604;SDS011;5858;43.076;25.626;2023-07-13T08:00:49;13.65;;;10.15;;
11604;SDS011;5858;43.076;25.626;2023-07-13T08:03:16;11.70;;;9.75;;
11604;SDS011;5858;43.076;25.626;2023-07-13T08:05:43;17.23;;;12.30;;
11604;SDS011;5858;43.076;25.626;2023-07-13T08:08:10;12.85;;;11.43;;
11604;SDS011;5858;43.076;25.626;2023-07-13T08:10:42;11.27;;;9.85;;
11604;SDS011;5858;43.076;25.626;2023-07-13T08:13:12;16.42;;;11.95;;
11604;SDS011;5858;43.076;25.626;2023-07-13T08:15:39;12.60;;;11.05;;
11604;SDS011;5858;43.076;25.626;2023-07-13T08:18:09;11.15;;;10.05;;
11604;SDS011;5858;43.076;25.626;2023-07-13T08:20:39;9.23;;;6.68;;
11604;SDS011;5858;43.076;25.626;2023-07-13T08:23:06;9.52;;;8.35;;
11604;SDS011;5858;43.076;25.626;2023-07-13T08:25:35;10.57;;;7.13;;
11604;SDS011;5858;43.076;25.626;2023-07-13T08:28:03;9.02;;;6.43;;
11604;SDS011;5858;43.076;25.626;2023-07-13T08:30:32;8.32;;;5.85;;
11604;SDS011;5858;43.076;25.626;2023-07-13T08:32:59;8.38;;;6.10;;
11604;SDS011;5858;43.076;25.626;2023-07-13T08:35:27;7.10;;;5.43;;
11604;SDS011;5858;43.076;25.626;2023-07-13T08:37:58;12.02;;;5.93;;
11604;SDS011;5858;43.076;25.626;2023-07-13T08:40:27;7.35;;;5.22;;
11604;SDS011;5858;43.076;25.626;2023-07-13T08:43:02;7.95;;;5.50;;
11604;SDS011;5858;43.076;25.626;2023-07-13T08:45:37;8.43;;;5.60;;
11604;SDS011;5858;43.076;25.626;2023-07-13T08:48:10;6.25;;;4.75;;
11604;SDS011;5858;43.076;25.626;2023-07-13T08:50:47;6.68;;;4.90;;
11604;SDS011;5858;43.076;25.626;2023-07-13T08:53:19;7.60;;;4.65;;
11604;SDS011;5858;43.076;25.626;2023-07-13T08:55:49;6.50;;;5.28;;
11604;SDS011;5858;43.076;25.626;2023-07-13T08:58:24;10.38;;;5.10;;
11604;SDS011;5858;43.076;25.626;2023-07-13T09:00:56;6.15;;;5.28;;
11604;SDS011;5858;43.076;25.626;2023-07-13T09:03:37;6.88;;;5.15;;
11604;SDS011;5858;43.076;25.626;2023-07-13T09:06:07;8.20;;;5.03;;
11604;SDS011;5858;43.076;25.626;2023-07-13T09:08:44;6.55;;;4.47;;
11604;SDS011;5858;43.076;25.626;2023-07-13T09:11:26;6.20;;;4.72;;
11604;SDS011;5858;43.076;25.626;2023-07-13T09:14:06;5.55;;;4.10;;
11604;SDS011;5858;43.076;25.626;2023-07-13T09:16:45;5.55;;;4.95;;
11604;SDS011;5858;43.076;25.626;2023-07-13T09:19:16;5.20;;;4.70;;
11604;SDS011;5858;43.076;25.626;2023-07-13T09:21:50;4.70;;;4.30;;
11604;SDS011;5858;43.076;25.626;2023-07-13T09:24:27;7.60;;;4.47;;
11604;SDS011;5858;43.076;25.626;2023-07-13T09:27:01;7.25;;;4.45;;
11604;SDS011;5858;43.076;25.626;2023-07-13T09:29:36;6.18;;;4.60;;
11604;SDS011;5858;43.076;25.626;2023-07-13T09:32:10;7.65;;;4.65;;
11604;SDS011;5858;43.076;25.626;2023-07-13T09:34:41;7.05;;;4.03;;
11604;SDS011;5858;43.076;25.626;2023-07-13T09:37:08;4.35;;;3.95;;
11604;SDS011;5858;43.076;25.626;2023-07-13T09:39:35;4.68;;;4.00;;
11604;SDS011;5858;43.076;25.626;2023-07-13T09:42:06;7.65;;;4.45;;
11604;SDS011;5858;43.076;25.626;2023-07-13T09:44:49;6.07;;;4.28;;
11604;SDS011;5858;43.076;25.626;2023-07-13T09:47:20;5.45;;;4.18;;
11604;SDS011;5858;43.076;25.626;2023-07-13T09:49:53;5.00;;;3.70;;
11604;SDS011;5858;43.076;25.626;2023-07-13T09:52:23;4.45;;;4.03;;
11604;SDS011;5858;43.076;25.626;2023-07-13T09:54:54;7.70;;;3.75;;
11604;SDS011;5858;43.076;25.626;2023-07-13T09:57:28;4.07;;;3.67;;
11604;SDS011;5858;43.076;25.626;2023-07-13T09:59:55;4.63;;;3.55;;
11604;SDS011;5858;43.076;25.626;2023-07-13T10:02:28;5.30;;;3.88;;
11604;SDS011;5858;43.076;25.626;2023-07-13T10:04:58;5.03;;;3.72;;
11604;SDS011;5858;43.076;25.626;2023-07-13T10:07:26;4.57;;;4.18;;
11604;SDS011;5858;43.076;25.626;2023-07-13T10:09:54;6.20;;;4.75;;
11604;SDS011;5858;43.076;25.626;2023-07-13T10:12:22;5.10;;;3.88;;
11604;SDS011;5858;43.076;25.626;2023-07-13T10:14:50;5.00;;;3.70;;
11604;SDS011;5858;43.076;25.626;2023-07-13T10:17:26;8.07;;;3.78;;
11604;SDS011;5858;43.076;25.626;2023-07-13T10:19:58;6.43;;;3.72;;
11604;SDS011;5858;43.076;25.626;2023-07-13T10:22:32;6.78;;;3.75;;
11604;SDS011;5858;43.076;25.626;2023-07-13T10:25:12;5.38;;;4.22;;
11604;SDS011;5858;43.076;25.626;2023-07-13T10:27:45;5.28;;;4.78;;
11604;SDS011;5858;43.076;25.626;2023-07-13T10:30:14;7.25;;;4.72;;
11604;SDS011;5858;43.076;25.626;2023-07-13T10:32:47;4.50;;;4.10;;
11604;SDS011;5858;43.076;25.626;2023-07-13T10:35:17;5.13;;;3.70;;
11604;SDS011;5858;43.076;25.626;2023-07-13T10:37:51;4.95;;;3.95;;
11604;SDS011;5858;43.076;25.626;2023-07-13T10:40:23;5.95;;;3.50;;
11604;SDS011;5858;43.076;25.626;2023-07-13T10:42:57;5.05;;;3.78;;
11604;SDS011;5858;43.076;25.626;2023-07-13T10:45:27;7.18;;;4.10;;
11604;SDS011;5858;43.076;25.626;2023-07-13T10:48:02;5.18;;;3.65;;
11604;SDS011;5858;43.076;25.626;2023-07-13T10:50:41;5.80;;;3.70;;
11604;SDS011;5858;43.076;25.626;2023-07-13T10:53:18;8.52;;;4.35;;
11604;SDS011;5858;43.076;25.626;2023-07-13T10:55:56;5.55;;;3.72;;
11604;SDS011;5858;43.076;25.626;2023-07-13T10:58:34;7.13;;;3.67;;
11604;SDS011;5858;43.076;25.626;2023-07-13T11:01:04;3.72;;;3.28;;
11604;SDS011;5858;43.076;25.626;2023-07-13T11:03:37;5.85;;;3.50;;
11604;SDS011;5858;43.076;25.626;2023-07-13T11:09:17;7.78;;;3.80;;
11604;SDS011;5858;43.076;25.626;2023-07-13T11:11:51;5.53;;;3.20;;
11604;SDS011;5858;43.076;25.626;2023-07-13T11:14:28;5.63;;;3.35;;
11604;SDS011;5858;43.076;25.626;2023-07-13T11:20:07;6.18;;;3.53;;
11604;SDS011;5858;43.076;25.626;2023-07-13T11:22:46;8.30;;;3.95;;
11604;SDS011;5858;43.076;25.626;2023-07-13T11:25:21;5.13;;;3.60;;
11604;SDS011;5858;43.076;25.626;2023-07-13T11:28:04;4.88;;;3.15;;
11604;SDS011;5858;43.076;25.626;2023-07-13T11:30:38;4.72;;;3.13;;
11604;SDS011;5858;43.076;25.626;2023-07-13T11:33:13;7.50;;;3.38;;
11604;SDS011;5858;43.076;25.626;2023-07-13T11:35:49;5.55;;;3.67;;
11604;SDS011;5858;43.076;25.626;2023-07-13T11:38:20;5.05;;;3.38;;
11604;SDS011;5858;43.076;25.626;2023-07-13T11:40:53;5.53;;;3.75;;
11604;SDS011;5858;43.076;25.626;2023-07-13T11:43:22;6.40;;;3.92;;
11604;SDS011;5858;43.076;25.626;2023-07-13T11:45:50;5.97;;;3.40;;
11604;SDS011;5858;43.076;25.626;2023-07-13T11:48:20;5.00;;;3.58;;
11604;SDS011;5858;43.076;25.626;2023-07-13T11:50:53;7.03;;;3.47;;
11604;SDS011;5858;43.076;25.626;2023-07-13T11:53:50;4.60;;;3.42;;
11604;SDS011;5858;43.076;25.626;2023-07-13T11:56:21;7.53;;;3.55;;
11604;SDS011;5858;43.076;25.626;2023-07-13T11:58:53;4.30;;;3.30;;
11604;SDS011;5858;43.076;25.626;2023-07-13T12:01:23;6.63;;;3.60;;
11604;SDS011;5858;43.076;25.626;2023-07-13T12:03:54;4.82;;;3.63;;
11604;SDS011;5858;43.076;25.626;2023-07-13T12:06:25;6.15;;;4.13;;
11604;SDS011;5858;43.076;25.626;2023-07-13T12:09:02;4.18;;;3.78;;
11604;SDS011;5858;43.076;25.626;2023-07-13T12:11:42;4.15;;;3.72;;
11604;SDS011;5858;43.076;25.626;2023-07-13T12:14:13;6.88;;;3.90;;
11604;SDS011;5858;43.076;25.626;2023-07-13T12:16:42;5.03;;;3.40;;
11604;SDS011;5858;43.076;25.626;2023-07-13T12:22:14;6.50;;;4.07;;
11604;SDS011;5858;43.076;25.626;2023-07-13T12:24:59;5.03;;;3.78;;
11604;SDS011;5858;43.076;25.626;2023-07-13T12:28:19;5.78;;;3.63;;
11604;SDS011;5858;43.076;25.626;2023-07-13T12:30:51;6.72;;;3.17;;
11604;SDS011;5858;43.076;25.626;2023-07-13T12:33:45;5.95;;;3.75;;
11604;SDS011;5858;43.076;25.626;2023-07-13T12:36:12;5.95;;;4.05;;
11604;SDS011;5858;43.076;25.626;2023-07-13T12:38:44;4.70;;;3.50;;
11604;SDS011;5858;43.076;25.626;2023-07-13T12:41:12;6.82;;;3.88;;
11604;SDS011;5858;43.076;25.626;2023-07-13T12:43:42;6.78;;;3.67;;
11604;SDS011;5858;43.076;25.626;2023-07-13T12:46:17;7.70;;;3.60;;
11604;SDS011;5858;43.076;25.626;2023-07-13T12:48:48;4.38;;;3.70;;
11604;SDS011;5858;43.076;25.626;2023-07-13T12:51:16;6.07;;;4.03;;
11604;SDS011;5858;43.076;25.626;2023-07-13T12:53:47;5.53;;;4.05;;
11604;SDS011;5858;43.076;25.626;2023-07-13T12:56:18;6.55;;;4.53;;
11604;SDS011;5858;43.076;25.626;2023-07-13T12:58:49;5.05;;;3.92;;
11604;SDS011;5858;43.076;25.626;2023-07-13T13:01:20;5.10;;;3.95;;
11604;SDS011;5858;43.076;25.626;2023-07-13T13:03:50;8.05;;;4.40;;
11604;SDS011;5858;43.076;25.626;2023-07-13T13:06:21;5.32;;;3.53;;
11604;SDS011;5858;43.076;25.626;2023-07-13T13:08:53;4.60;;;3.47;;
11604;SDS011;5858;43.076;25.626;2023-07-13T13:11:21;4.95;;;3.58;;
11604;SDS011;5858;43.076;25.626;2023-07-13T13:13:49;5.38;;;4.63;;
11604;SDS011;5858;43.076;25.626;2023-07-13T13:16:19;5.15;;;3.85;;
11604;SDS011;5858;43.076;25.626;2023-07-13T13:18:48;5.28;;;3.80;;
11604;SDS011;5858;43.076;25.626;2023-07-13T13:21:16;5.15;;;3.70;;
11604;SDS011;5858;43.076;25.626;2023-07-13T13:23:44;5.22;;;4.00;;
11604;SDS011;5858;43.076;25.626;2023-07-13T13:26:21;5.05;;;4.05;;
11604;SDS011;5858;43.076;25.626;2023-07-13T13:28:49;6.53;;;4.07;;
11604;SDS011;5858;43.076;25.626;2023-07-13T13:34:16;6.30;;;4.00;;
11604;SDS011;5858;43.076;25.626;2023-07-13T13:39:43;5.30;;;3.55;;
11604;SDS011;5858;43.076;25.626;2023-07-13T13:42:18;3.92;;;3.50;;
11604;SDS011;5858;43.076;25.626;2023-07-13T13:45:07;5.00;;;4.25;;
11604;SDS011;5858;43.076;25.626;2023-07-13T13:47:38;5.85;;;3.75;;
11604;SDS011;5858;43.076;25.626;2023-07-13T13:50:11;5.32;;;4.10;;
11604;SDS011;5858;43.076;25.626;2023-07-13T13:52:40;4.35;;;3.95;;
11604;SDS011;5858;43.076;25.626;2023-07-13T13:55:13;4.75;;;3.85;;
11604;SDS011;5858;43.076;25.626;2023-07-13T13:57:43;7.70;;;4.35;;
11604;SDS011;5858;43.076;25.626;2023-07-13T14:00:13;4.85;;;4.18;;
11604;SDS011;5858;43.076;25.626;2023-07-13T14:02:47;6.75;;;4.28;;
11604;SDS011;5858;43.076;25.626;2023-07-13T14:05:17;5.78;;;4.38;;
11604;SDS011;5858;43.076;25.626;2023-07-13T14:07:51;7.10;;;4.53;;
11604;SDS011;5858;43.076;25.626;2023-07-13T14:10:20;5.00;;;4.22;;
11604;SDS011;5858;43.076;25.626;2023-07-13T14:12:54;6.25;;;4.75;;
11604;SDS011;5858;43.076;25.626;2023-07-13T14:15:24;5.85;;;4.18;;
11604;SDS011;5858;43.076;25.626;2023-07-13T14:17:54;5.65;;;3.88;;
11604;SDS011;5858;43.076;25.626;2023-07-13T14:20:26;7.32;;;4.47;;
11604;SDS011;5858;43.076;25.626;2023-07-13T14:22:56;4.93;;;4.18;;
11604;SDS011;5858;43.076;25.626;2023-07-13T14:25:24;7.50;;;4.15;;
11604;SDS011;5858;43.076;25.626;2023-07-13T14:27:53;4.38;;;3.97;;
11604;SDS011;5858;43.076;25.626;2023-07-13T14:30:33;4.57;;;4.18;;
11604;SDS011;5858;43.076;25.626;2023-07-13T14:33:01;8.02;;;4.10;;
11604;SDS011;5858;43.076;25.626;2023-07-13T14:35:34;6.32;;;4.75;;
11604;SDS011;5858;43.076;25.626;2023-07-13T14:38:02;6.38;;;4.25;;
11604;SDS011;5858;43.076;25.626;2023-07-13T14:40:34;4.85;;;4.13;;
11604;SDS011;5858;43.076;25.626;2023-07-13T14:43:03;5.10;;;4.35;;
11604;SDS011;5858;43.076;25.626;2023-07-13T14:45:35;6.55;;;4.55;;
11604;SDS011;5858;43.076;25.626;2023-07-13T14:48:17;5.93;;;4.50;;
11604;SDS011;5858;43.076;25.626;2023-07-13T14:50:53;5.05;;;4.55;;
11604;SDS011;5858;43.076;25.626;2023-07-13T14:53:30;8.65;;;4.32;;
11604;SDS011;5858;43.076;25.626;2023-07-13T14:55:57;5.10;;;4.60;;
11604;SDS011;5858;43.076;25.626;2023-07-13T14:58:26;5.45;;;4.50;;
11604;SDS011;5858;43.076;25.626;2023-07-13T15:00:55;7.35;;;4.70;;
11604;SDS011;5858;43.076;25.626;2023-07-13T15:03:23;8.23;;;4.93;;
11604;SDS011;5858;43.076;25.626;2023-07-13T15:05:54;5.70;;;4.18;;
11604;SDS011;5858;43.076;25.626;2023-07-13T15:08:21;9.07;;;4.85;;
11604;SDS011;5858;43.076;25.626;2023-07-13T15:10:49;5.63;;;4.28;;
11604;SDS011;5858;43.076;25.626;2023-07-13T15:13:16;5.75;;;4.70;;
11604;SDS011;5858;43.076;25.626;2023-07-13T15:15:51;6.50;;;3.97;;
11604;SDS011;5858;43.076;25.626;2023-07-13T15:18:23;5.20;;;4.25;;
11604;SDS011;5858;43.076;25.626;2023-07-13T15:20:52;7.57;;;4.53;;
11604;SDS011;5858;43.076;25.626;2023-07-13T15:23:27;4.95;;;4.45;;
11604;SDS011;5858;43.076;25.626;2023-07-13T15:25:54;10.05;;;5.90;;
11604;SDS011;5858;43.076;25.626;2023-07-13T15:28:24;7.45;;;5.32;;
11604;SDS011;5858;43.076;25.626;2023-07-13T15:30:56;7.93;;;4.85;;
11604;SDS011;5858;43.076;25.626;2023-07-13T15:33:25;6.85;;;4.95;;
11604;SDS011;5858;43.076;25.626;2023-07-13T15:35:54;7.05;;;4.80;;
11604;SDS011;5858;43.076;25.626;2023-07-13T15:38:29;6.55;;;4.13;;
11604;SDS011;5858;43.076;25.626;2023-07-13T15:40:59;5.80;;;4.45;;
11604;SDS011;5858;43.076;25.626;2023-07-13T15:46:58;8.50;;;5.20;;
11604;SDS011;5858;43.076;25.626;2023-07-13T15:49:44;5.57;;;4.93;;
11604;SDS011;5858;43.076;25.626;2023-07-13T15:52:16;7.00;;;5.10;;
11604;SDS011;5858;43.076;25.626;2023-07-13T15:54:55;6.35;;;4.45;;
11604;SDS011;5858;43.076;25.626;2023-07-13T15:57:25;4.90;;;4.50;;